<?xml version="1.0" encoding="UTF-8" standalone="no" ?>
<gpx xmlns="http://www.topografix.com/GPX/1/1" xmlns:xsi="http://www.w3.org/2001/XMLSchema-instance" xsi:schemaLocation="http://www.topografix.com/GPX/1/1 http://www.topografix.com/GPX/1/1/gpx.xsd" version="1.1" creator="VisuGPX - https://www.visugpx.com">
  <metadata>
    <name>Argentina</name>
    <desc><![CDATA[Downloaded from eMap Software Version 2.75]]></desc>
  </metadata>
  <trk>
    <name><![CDATA[Argentina_178]]></name>
    <extensions>
      <line xmlns="http://www.topografix.com/GPX/gpx_style/0/2">
        <color>ff0000</color>
        <opacity>0.78</opacity>
        <width>0.6000</width>
      </line>
    </extensions>
    <trkseg>
      <trkpt lat="43.61662" lon="6.94403">
        <ele>91.462524</ele>
        <time>2010-04-01T10:42:29Z</time>
      </trkpt>
      <trkpt lat="43.61656" lon="6.94375">
        <ele>90.501343</ele>
        <time>2010-04-01T10:42:49Z</time>
      </trkpt>
      <trkpt lat="43.6165" lon="6.94353">
        <ele>90.501343</ele>
        <time>2010-04-01T10:43:07Z</time>
      </trkpt>
      <trkpt lat="43.61637" lon="6.94321">
        <ele>90.981934</ele>
        <time>2010-04-01T10:43:31Z</time>
      </trkpt>
      <trkpt lat="43.61617" lon="6.94282">
        <ele>92.42395</ele>
        <time>2010-04-01T10:44:03Z</time>
      </trkpt>
      <trkpt lat="43.61613" lon="6.9428">
        <ele>92.904541</ele>
        <time>2010-04-01T10:44:21Z</time>
      </trkpt>
      <trkpt lat="43.61615" lon="6.94293">
        <ele>93.385132</ele>
        <time>2010-04-01T10:44:35Z</time>
      </trkpt>
      <trkpt lat="43.6162" lon="6.943">
        <ele>91.943237</ele>
        <time>2010-04-01T10:44:40Z</time>
      </trkpt>
      <trkpt lat="43.61632" lon="6.94321">
        <ele>89.059326</ele>
        <time>2010-04-01T10:44:58Z</time>
      </trkpt>
      <trkpt lat="43.61647" lon="6.94357">
        <ele>87.136597</ele>
        <time>2010-04-01T10:45:21Z</time>
      </trkpt>
      <trkpt lat="43.61658" lon="6.94398">
        <ele>85.69458</ele>
        <time>2010-04-01T10:45:45Z</time>
      </trkpt>
      <trkpt lat="43.61667" lon="6.94443">
        <ele>84.252686</ele>
        <time>2010-04-01T10:46:12Z</time>
      </trkpt>
      <trkpt lat="43.61662" lon="6.9446">
        <ele>81.849365</ele>
        <time>2010-04-01T10:46:28Z</time>
      </trkpt>
      <trkpt lat="43.61665" lon="6.94471">
        <ele>79.926636</ele>
        <time>2010-04-01T10:46:47Z</time>
      </trkpt>
      <trkpt lat="43.61665" lon="6.94471">
        <ele>79.446045</ele>
        <time>2010-04-01T10:46:58Z</time>
      </trkpt>
      <trkpt lat="43.61647" lon="6.94486">
        <ele>75.60083</ele>
        <time>2010-04-01T10:47:21Z</time>
      </trkpt>
      <trkpt lat="43.61632" lon="6.94506">
        <ele>73.678223</ele>
        <time>2010-04-01T10:47:41Z</time>
      </trkpt>
      <trkpt lat="43.61622" lon="6.94503">
        <ele>70.313477</ele>
        <time>2010-04-01T10:47:57Z</time>
      </trkpt>
      <trkpt lat="43.6162" lon="6.94499">
        <ele>71.274902</ele>
        <time>2010-04-01T10:48:04Z</time>
      </trkpt>
      <trkpt lat="43.6162" lon="6.94516">
        <ele>70.313477</ele>
        <time>2010-04-01T10:48:13Z</time>
      </trkpt>
      <trkpt lat="43.61622" lon="6.94544">
        <ele>69.832886</ele>
        <time>2010-04-01T10:48:40Z</time>
      </trkpt>
      <trkpt lat="43.61615" lon="6.94553">
        <ele>68.390869</ele>
        <time>2010-04-01T10:49:20Z</time>
      </trkpt>
      <trkpt lat="43.61607" lon="6.94553">
        <ele>68.871582</ele>
        <time>2010-04-01T10:50:09Z</time>
      </trkpt>
    </trkseg>
  </trk>
</gpx>